Time;durP1;ratioP1;P1;durP2;ratioP2;P2;SDS_P1;SDS_P2;PMS_P1;PMS_P2;Temp;Humidity;BMP_temperature;BMP_pressure;BME280_temperature;BME280_humidity;BME280_pressure;Samples;Min_cycle;Max_cycle;Signal;HPM_P1;HPM_P2
2022/03/11 00:00:26;;;;;;;8.32;3.72;;;;;;;2.15;50.10;102345.88;5072157;28;20483;-72
2022/03/11 00:02:53;;;;;;;14.57;6.68;;;;;;;1.95;50.97;102339.69;5072858;28;20048;-72
2022/03/11 00:05:19;;;;;;;11.15;5.03;;;;;;;1.82;51.11;102335.22;5072660;28;20049;-72
2022/03/11 00:07:46;;;;;;;14.60;5.65;;;;;;;1.72;51.47;102351.53;5072359;28;20129;-72
2022/03/11 00:10:13;;;;;;;12.65;6.07;;;;;;;1.65;51.61;102345.44;5071513;28;20675;-72
2022/03/11 00:12:40;;;;;;;15.63;6.32;;;;;;;1.98;50.83;102334.53;5070727;28;20036;-72
2022/03/11 00:15:07;;;;;;;12.32;6.18;;;;;;;1.85;50.69;102338.72;5071588;28;20117;-72
2022/03/11 00:17:34;;;;;;;13.70;6.18;;;;;;;1.87;50.74;102336.16;5071650;28;20044;-72
2022/03/11 00:20:00;;;;;;;11.68;5.65;;;;;;;1.62;51.37;102339.34;5071530;28;20049;-72
2022/03/11 00:22:27;;;;;;;15.77;4.57;;;;;;;1.82;50.75;102327.47;5072049;28;20055;-72
2022/03/11 00:24:53;;;;;;;7.63;4.00;;;;;;;1.56;51.39;102332.38;5065044;28;20052;-72
2022/03/11 00:27:20;;;;;;;11.75;5.85;;;;;;;1.80;51.05;102331.78;5070531;28;20044;-72
2022/03/11 00:29:47;;;;;;;15.80;6.85;;;;;;;1.85;51.02;102338.72;5071468;28;20044;-72
2022/03/11 00:32:13;;;;;;;13.10;6.10;;;;;;;1.88;50.50;102336.19;5071768;28;20071;-72
2022/03/11 00:34:39;;;;;;;18.33;6.30;;;;;;;1.92;50.42;102340.50;5071874;28;20048;-72
2022/03/11 00:37:06;;;;;;;11.48;6.00;;;;;;;1.66;50.98;102339.41;5072022;28;20048;-72
2022/03/11 00:39:32;;;;;;;12.45;6.50;;;;;;;1.67;50.71;102338.53;5071118;28;20470;-72
2022/03/11 00:41:58;;;;;;;8.85;4.45;;;;;;;1.63;50.77;102339.34;5071928;28;20098;-72
2022/03/11 00:44:26;;;;;;;12.75;5.13;;;;;;;1.78;50.44;102344.69;5071539;28;20067;-72
2022/03/11 00:46:53;;;;;;;15.02;6.65;;;;;;;1.77;50.51;102335.22;5068429;28;20048;-72
2022/03/11 00:49:19;;;;;;;15.45;6.25;;;;;;;1.93;50.03;102331.03;5070544;28;20044;-73
2022/03/11 00:51:45;;;;;;;13.88;5.50;;;;;;;1.79;50.45;102332.63;5071624;28;20447;-72
2022/03/11 00:54:12;;;;;;;13.82;6.93;;;;;;;1.78;50.24;102318.81;5071051;28;20098;-72
2022/03/11 00:56:38;;;;;;;13.88;6.28;;;;;;;1.55;51.01;102328.09;5071164;28;20048;-72
2022/03/11 00:59:06;;;;;;;10.00;5.38;;;;;;;1.70;50.52;102329.97;5070504;28;20492;-72
2022/03/11 01:01:34;;;;;;;14.23;6.85;;;;;;;2.00;49.71;102327.63;5070675;28;20083;-72
2022/03/11 01:04:00;;;;;;;9.30;4.75;;;;;;;1.67;50.21;102333.38;5070424;28;20048;-72
2022/03/11 01:06:26;;;;;;;21.02;7.07;;;;;;;1.78;50.01;102325.72;5071478;28;20504;-72
2022/03/11 01:08:52;;;;;;;16.17;5.97;;;;;;;1.49;50.85;102330.59;5070834;28;20496;-72
2022/03/11 01:11:19;;;;;;;14.93;6.18;;;;;;;1.65;50.47;102340.25;5071205;28;20070;-71
2022/03/11 01:13:45;;;;;;;19.02;7.20;;;;;;;1.39;50.96;102337.38;5070553;28;20070;-71
2022/03/11 01:16:11;;;;;;;10.55;4.88;;;;;;;1.32;51.05;102329.56;5070478;28;20040;-71
2022/03/11 01:18:39;;;;;;;7.57;4.03;;;;;;;0.96;51.96;102330.81;5069530;28;20102;-72
2022/03/11 01:21:06;;;;;;;14.52;6.43;;;;;;;1.16;51.93;102330.22;5067602;28;20044;-72
2022/03/11 01:23:32;;;;;;;16.23;5.45;;;;;;;1.29;51.38;102334.69;5068269;28;20053;-73
2022/03/11 01:25:58;;;;;;;9.60;5.45;;;;;;;1.27;51.13;102323.44;5068095;28;20094;-73
2022/03/11 01:28:25;;;;;;;14.50;6.47;;;;;;;1.36;51.49;102326.16;5067731;28;20102;-73
2022/03/11 01:30:51;;;;;;;18.27;6.72;;;;;;;1.43;50.86;102323.66;5063088;28;20044;-74
2022/03/11 01:33:17;;;;;;;16.75;6.32;;;;;;;1.17;51.81;102314.75;5067654;28;20098;-74
2022/03/11 01:35:46;;;;;;;14.95;6.35;;;;;;;1.07;51.89;102323.22;5067903;28;20052;-74
2022/03/11 01:38:12;;;;;;;10.20;5.13;;;;;;;1.02;51.92;102319.72;5066722;28;20136;-73
2022/03/11 01:40:39;;;;;;;13.45;6.03;;;;;;;0.97;52.18;102313.63;5049898;28;20091;-73
2022/03/11 01:43:05;;;;;;;14.57;6.78;;;;;;;0.75;52.70;102315.06;5075699;28;20112;-73
2022/03/11 01:45:31;;;;;;;17.23;6.90;;;;;;;0.92;52.47;102326.47;5066091;28;20458;-73
2022/03/11 01:47:58;;;;;;;18.88;7.07;;;;;;;0.95;52.57;102318.78;5067258;28;20459;-72
2022/03/11 01:50:24;;;;;;;15.43;6.97;;;;;;;1.15;51.93;102313.84;5067548;28;20097;-73
2022/03/11 01:52:52;;;;;;;13.32;6.30;;;;;;;0.96;51.98;102312.75;5067484;28;20044;-72
2022/03/11 01:55:19;;;;;;;15.68;6.70;;;;;;;0.92;52.18;102300.63;5066436;28;20263;-73
2022/03/11 01:57:46;;;;;;;7.80;4.13;;;;;;;1.08;51.72;102303.41;5066861;28;20041;-73
2022/03/11 02:00:14;;;;;;;13.10;6.22;;;;;;;0.85;52.55;102303.16;5065760;28;20052;-73
2022/03/11 02:02:40;;;;;;;17.30;6.65;;;;;;;0.74;52.85;102302.97;5067491;28;20117;-73
2022/03/11 02:05:07;;;;;;;15.15;6.10;;;;;;;0.83;52.42;102297.09;5069689;28;20044;-73
2022/03/11 02:07:34;;;;;;;11.20;5.70;;;;;;;0.72;52.81;102301.25;5069731;28;20059;-73
2022/03/11 02:10:01;;;;;;;10.98;4.40;;;;;;;0.94;52.12;102290.34;5068679;28;20098;-73
2022/03/11 02:12:29;;;;;;;17.55;7.45;;;;;;;0.91;52.41;102301.50;5069138;28;20135;-73
2022/03/11 02:14:56;;;;;;;15.13;6.68;;;;;;;0.83;52.69;102292.78;5068738;28;20130;-73
2022/03/11 02:17:22;;;;;;;9.82;4.82;;;;;;;0.66;52.76;102293.41;5069380;28;20052;-73
2022/03/11 02:19:48;;;;;;;10.40;5.10;;;;;;;0.63;52.86;102289.06;5067687;28;20044;-73
2022/03/11 02:22:17;;;;;;;16.08;6.70;;;;;;;0.46;53.60;102287.97;5069432;28;20087;-73
2022/03/11 02:24:44;;;;;;;12.10;5.75;;;;;;;0.59;53.26;102284.75;5069626;28;20048;-72
2022/03/11 02:27:11;;;;;;;14.40;5.82;;;;;;;0.79;52.60;102280.69;5069453;28;20040;-73
2022/03/11 02:29:37;;;;;;;12.55;6.03;;;;;;;0.57;53.32;102285.53;5068771;28;20049;-72
2022/03/11 02:32:05;;;;;;;8.75;4.63;;;;;;;0.46;53.47;102282.81;5069411;28;20071;-72
2022/03/11 02:34:31;;;;;;;16.38;7.45;;;;;;;0.47;53.46;102284.56;5069412;28;20057;-72
2022/03/11 02:36:58;;;;;;;9.93;4.45;;;;;;;0.59;53.03;102282.16;5069754;28;20048;-72
2022/03/11 02:39:24;;;;;;;15.38;6.22;;;;;;;0.22;54.16;102278.16;5068220;28;20052;-72
2022/03/11 02:41:52;;;;;;;14.55;6.53;;;;;;;0.40;53.57;102278.44;5069248;28;20097;-72
2022/03/11 02:44:18;;;;;;;16.35;7.05;;;;;;;0.42;53.57;102284.47;5067996;28;20056;-72
2022/03/11 02:46:44;;;;;;;15.80;7.10;;;;;;;0.74;52.77;102282.31;5068724;28;20041;-72
2022/03/11 02:49:11;;;;;;;10.43;4.30;;;;;;;0.64;52.70;102285.66;5068295;28;20048;-74
2022/03/11 02:51:37;;;;;;;11.15;5.53;;;;;;;0.68;52.75;102286.56;5068906;28;20052;-74
2022/03/11 02:54:03;;;;;;;16.25;6.72;;;;;;;0.43;53.31;102275.91;5069153;28;20040;-73
2022/03/11 02:56:30;;;;;;;14.10;6.72;;;;;;;0.89;52.17;102279.06;5068679;28;20051;-73
2022/03/11 02:58:58;;;;;;;11.75;6.00;;;;;;;0.67;52.23;102279.66;5068469;28;20048;-73
2022/03/11 03:01:24;;;;;;;13.30;5.85;;;;;;;0.24;53.32;102288.50;5057681;28;20060;-73
2022/03/11 03:03:50;;;;;;;16.92;6.55;;;;;;;0.61;52.52;102275.28;5068164;28;20048;-74
2022/03/11 03:06:17;;;;;;;13.43;6.25;;;;;;;0.69;52.30;102283.13;5068487;28;20099;-73
2022/03/11 03:08:43;;;;;;;15.82;6.05;;;;;;;0.82;52.18;102274.69;5054302;28;20041;-73
2022/03/11 03:11:10;;;;;;;12.50;6.35;;;;;;;0.42;52.72;102269.00;5062485;28;20455;-73
2022/03/11 03:13:36;;;;;;;17.05;7.57;;;;;;;0.30;53.17;102275.69;5055988;28;20045;-72
2022/03/11 03:16:04;;;;;;;15.02;6.32;;;;;;;0.38;52.75;102264.63;5064843;28;20094;-72
2022/03/11 03:18:31;;;;;;;12.88;6.00;;;;;;;0.51;52.66;102263.13;5055784;28;20102;-72
2022/03/11 03:20:57;;;;;;;11.15;5.65;;;;;;;0.37;52.75;102268.06;5056490;28;20044;-72
2022/03/11 03:23:25;;;;;;;16.40;6.82;;;;;;;0.12;53.35;102265.97;5060880;28;20126;-73
2022/03/11 03:25:52;;;;;;;13.73;5.40;;;;;;;0.22;53.49;102272.16;5067522;28;20177;-73
2022/03/11 03:28:18;;;;;;;14.73;6.88;;;;;;;0.05;53.76;102260.69;5059993;28;20423;-73
2022/03/11 03:30:44;;;;;;;19.88;6.57;;;;;;;0.26;53.10;102267.03;5068228;28;20040;-73
2022/03/11 03:33:12;;;;;;;14.70;7.13;;;;;;;0.23;53.05;102266.13;5068228;28;20044;-73
2022/03/11 03:35:38;;;;;;;15.73;8.00;;;;;;;0.11;52.94;102264.22;5053262;28;20053;-73
2022/03/11 03:38:05;;;;;;;7.97;3.58;;;;;;;0.01;53.04;102262.34;5068188;28;20066;-73
2022/03/11 03:40:31;;;;;;;10.00;5.95;;;;;;;0.03;53.25;102267.56;5066143;28;20102;-73
2022/03/11 03:42:57;;;;;;;17.70;7.78;;;;;;;-0.05;53.39;102265.72;5068098;28;20048;-73
2022/03/11 03:45:24;;;;;;;12.82;5.90;;;;;;;-0.05;53.29;102270.88;5067342;28;20493;-73
2022/03/11 03:47:50;;;;;;;8.02;3.53;;;;;;;-0.16;53.43;102275.00;5059140;28;20135;-73
2022/03/11 03:50:18;;;;;;;8.95;4.47;;;;;;;0.08;53.26;102268.47;5067573;28;20645;-73
2022/03/11 03:52:45;;;;;;;15.20;7.60;;;;;;;0.23;52.75;102258.38;5068060;28;20102;-73
2022/03/11 03:55:12;;;;;;;17.33;5.57;;;;;;;0.19;52.35;102269.50;5068132;28;20051;-71
2022/03/11 03:57:38;;;;;;;14.38;7.30;;;;;;;0.07;52.76;102256.44;5056150;28;20507;-73
2022/03/11 04:00:06;;;;;;;22.33;6.25;;;;;;;0.00;52.79;102260.66;5067486;28;20067;-73
2022/03/11 04:02:33;;;;;;;15.85;5.13;;;;;;;0.16;52.08;102256.56;5068512;28;20060;-73
2022/03/11 04:04:59;;;;;;;11.38;5.43;;;;;;;0.01;52.20;102259.78;5067954;28;20048;-73
2022/03/11 04:07:27;;;;;;;13.90;4.85;;;;;;;0.11;51.75;102253.06;5055778;28;20452;-73
2022/03/11 04:09:53;;;;;;;12.88;5.50;;;;;;;0.00;52.26;102253.75;5063449;28;20049;-73
2022/03/11 04:12:20;;;;;;;13.70;6.50;;;;;;;-0.13;52.11;102248.38;5063304;28;20174;-73
2022/03/11 04:14:46;;;;;;;10.63;5.18;;;;;;;-0.18;52.22;102245.72;5067878;28;20041;-73
2022/03/11 04:17:13;;;;;;;17.20;5.35;;;;;;;-0.21;52.39;102253.41;5067527;28;20131;-73
2022/03/11 04:19:39;;;;;;;15.82;6.05;;;;;;;-0.03;51.96;102235.66;5067221;28;20056;-73
2022/03/11 04:22:05;;;;;;;15.18;5.03;;;;;;;-0.09;51.74;102237.28;5068086;28;20048;-73
2022/03/11 04:24:33;;;;;;;14.38;5.63;;;;;;;-0.23;52.10;102238.78;5060220;28;20189;-73
2022/03/11 04:26:59;;;;;;;11.90;5.53;;;;;;;-0.30;52.30;102231.78;5068028;28;20447;-73
2022/03/11 04:29:26;;;;;;;18.10;6.65;;;;;;;-0.25;52.24;102233.59;5067760;28;20565;-73
2022/03/11 04:31:52;;;;;;;15.02;5.50;;;;;;;-0.39;52.51;102227.34;5068317;28;20534;-73
2022/03/11 04:34:19;;;;;;;15.05;6.38;;;;;;;-0.49;52.58;102230.63;5067919;28;21511;-73
2022/03/11 04:36:45;;;;;;;14.95;6.18;;;;;;;-0.29;52.29;102233.50;5068992;28;20048;-73
2022/03/11 04:39:12;;;;;;;15.27;6.28;;;;;;;0.09;51.21;102228.94;5071003;28;20450;-73
2022/03/11 04:41:39;;;;;;;11.77;5.13;;;;;;;-0.05;51.67;102221.88;5071627;28;20522;-72
2022/03/11 04:44:06;;;;;;;13.98;6.03;;;;;;;-0.07;51.20;102223.56;5071499;28;20045;-72
2022/03/11 04:46:32;;;;;;;14.57;6.38;;;;;;;-0.21;51.76;102216.47;5070576;28;20546;-73
2022/03/11 04:48:59;;;;;;;11.60;4.95;;;;;;;-0.22;51.52;102214.75;5070683;28;20106;-72
2022/03/11 04:51:26;;;;;;;6.03;2.65;;;;;;;-0.10;51.30;102217.50;5063722;28;20064;-71
2022/03/11 04:53:52;;;;;;;13.27;6.00;;;;;;;-0.07;51.07;102227.84;5071288;28;20071;-72
2022/03/11 04:56:19;;;;;;;13.80;5.90;;;;;;;-0.36;51.81;102219.66;5071232;28;20048;-72
2022/03/11 04:58:47;;;;;;;14.07;5.93;;;;;;;-0.11;51.35;102224.34;5064083;28;20512;-73
2022/03/11 05:01:13;;;;;;;10.00;4.85;;;;;;;-0.13;50.61;102220.91;5066762;28;20057;-72
2022/03/11 05:03:39;;;;;;;16.80;6.28;;;;;;;0.05;50.56;102225.47;5071277;28;20492;-72
2022/03/11 05:06:06;;;;;;;16.00;6.00;;;;;;;-0.24;50.86;102221.56;5058616;28;20040;-72
2022/03/11 05:08:32;;;;;;;9.07;4.50;;;;;;;-0.39;51.15;102229.03;5071261;28;20048;-72
2022/03/11 05:10:58;;;;;;;10.10;4.78;;;;;;;-0.50;51.66;102216.00;5070840;28;20056;-72
2022/03/11 05:13:25;;;;;;;10.10;4.43;;;;;;;-0.54;51.13;102224.50;5066195;28;20044;-72
2022/03/11 05:15:52;;;;;;;11.02;5.47;;;;;;;-0.68;51.63;102225.97;5070247;28;20064;-72
2022/03/11 05:18:19;;;;;;;14.48;6.05;;;;;;;-0.67;51.78;102232.88;5070435;28;20055;-72
2022/03/11 05:20:45;;;;;;;15.30;5.65;;;;;;;-0.05;49.73;102231.34;5070425;28;20048;-72
2022/03/11 05:23:12;;;;;;;16.45;5.93;;;;;;;-0.10;49.68;102222.66;5058432;28;20555;-71
2022/03/11 05:25:39;;;;;;;12.70;5.63;;;;;;;-0.17;49.85;102226.84;5070321;28;20519;-72
2022/03/11 05:28:05;;;;;;;10.00;4.20;;;;;;;-0.04;49.37;102235.66;5068071;28;20049;-72
2022/03/11 05:30:31;;;;;;;14.93;5.85;;;;;;;-0.37;49.98;102224.81;5049975;28;20110;-72
2022/03/11 05:32:59;;;;;;;6.00;3.60;;;;;;;-0.15;49.48;102230.31;5054640;28;20049;-71
2022/03/11 05:35:25;;;;;;;13.90;5.95;;;;;;;-0.20;49.33;102221.66;5046051;28;20048;-71
2022/03/11 05:37:52;;;;;;;13.18;5.63;;;;;;;-0.31;49.47;102230.91;5053249;28;20221;-72
2022/03/11 05:40:18;;;;;;;12.15;5.38;;;;;;;-0.01;48.64;102230.53;5053902;28;20052;-72
2022/03/11 05:42:44;;;;;;;13.45;5.90;;;;;;;-0.42;49.56;102229.88;5067479;28;20106;-72
2022/03/11 05:45:12;;;;;;;17.40;6.53;;;;;;;-0.09;48.90;102221.81;5067068;28;20036;-72
2022/03/11 05:47:39;;;;;;;10.38;4.53;;;;;;;-0.16;48.69;102218.28;5055902;28;20049;-72
2022/03/11 05:50:07;;;;;;;10.55;5.13;;;;;;;-0.44;49.24;102221.22;5051744;28;20496;-73
2022/03/11 05:52:36;;;;;;;13.98;6.13;;;;;;;-0.01;48.40;102218.50;5062674;28;20495;-73
2022/03/11 05:55:03;;;;;;;14.00;6.10;;;;;;;-0.03;48.04;102225.34;5057881;28;20408;-72
2022/03/11 05:57:29;;;;;;;7.75;3.75;;;;;;;-0.01;47.55;102215.06;5063542;28;20116;-72
2022/03/11 05:59:55;;;;;;;13.45;5.68;;;;;;;0.26;46.86;102220.59;5049347;28;20037;-72
2022/03/11 06:02:21;;;;;;;13.57;5.88;;;;;;;0.03;47.42;102229.75;5052516;28;20041;-72
2022/03/11 06:04:48;;;;;;;10.95;5.50;;;;;;;0.20;46.76;102230.84;5069566;28;20041;-72
2022/03/11 06:07:15;;;;;;;13.02;5.38;;;;;;;0.19;46.72;102226.53;5069671;28;20565;-72
2022/03/11 06:09:42;;;;;;;11.82;3.65;;;;;;;0.29;46.32;102228.41;5069234;28;20565;-72
2022/03/11 06:12:09;;;;;;;12.75;5.07;;;;;;;0.41;46.27;102235.41;5069532;28;20492;-72
2022/03/11 06:14:35;;;;;;;13.60;5.22;;;;;;;0.72;45.19;102223.78;5056229;28;20053;-72
2022/03/11 06:17:02;;;;;;;11.98;5.40;;;;;;;0.55;45.47;102226.19;5064545;28;20567;-71
2022/03/11 06:19:28;;;;;;;14.90;6.05;;;;;;;0.59;45.63;102227.94;5056226;28;20557;-71
2022/03/11 06:21:57;;;;;;;19.85;4.90;;;;;;;1.16;44.58;102230.31;5069290;28;20088;-71
2022/03/11 06:24:25;;;;;;;11.70;5.47;;;;;;;1.39;43.09;102238.31;5053648;28;20069;-72
2022/03/11 06:26:51;;;;;;;11.57;5.38;;;;;;;1.64;42.64;102226.47;5049344;28;20128;-71
2022/03/11 06:29:18;;;;;;;12.23;6.45;;;;;;;1.85;42.39;102222.31;5040526;28;20045;-71
2022/03/11 06:31:44;;;;;;;13.98;6.35;;;;;;;2.23;41.58;102221.72;5054457;28;20115;-72
2022/03/11 06:34:10;;;;;;;13.38;5.63;;;;;;;2.28;40.94;102228.69;5037575;28;20046;-72
2022/03/11 06:36:37;;;;;;;10.57;5.53;;;;;;;2.32;40.84;102238.19;5037367;28;20041;-72
2022/03/11 06:39:03;;;;;;;13.55;5.65;;;;;;;2.02;41.67;102234.53;5037183;28;20133;-72
2022/03/11 06:41:31;;;;;;;13.23;5.53;;;;;;;2.65;39.78;102239.22;5059319;28;20102;-71
2022/03/11 06:43:57;;;;;;;12.73;6.57;;;;;;;2.33;41.08;102244.19;5067770;28;20044;-71
2022/03/11 06:46:24;;;;;;;14.70;7.05;;;;;;;3.19;39.03;102236.81;5069226;28;20068;-71
2022/03/11 06:48:50;;;;;;;16.33;7.45;;;;;;;2.75;39.11;102246.16;5051577;28;20061;-72
2022/03/11 06:51:17;;;;;;;13.55;7.07;;;;;;;2.35;40.11;102242.50;5031488;28;20102;-71
2022/03/11 06:53:43;;;;;;;15.73;6.43;;;;;;;3.00;39.65;102239.34;5063226;28;20151;-73
2022/03/11 06:56:09;;;;;;;14.73;6.50;;;;;;;3.24;38.45;102226.47;5066813;28;20803;-73
2022/03/11 06:58:38;;;;;;;19.77;8.50;;;;;;;3.45;37.75;102234.25;5068142;28;20045;-73
2022/03/11 07:01:04;;;;;;;12.55;6.35;;;;;;;3.89;37.00;102234.28;5065992;28;20063;-73
2022/03/11 07:03:31;;;;;;;20.88;6.50;;;;;;;4.22;35.75;102225.59;5068119;28;20040;-73
2022/03/11 07:05:57;;;;;;;13.40;6.00;;;;;;;4.52;35.92;102222.03;5050590;28;20511;-72
2022/03/11 07:08:24;;;;;;;13.80;6.82;;;;;;;5.20;34.87;102220.00;5056632;28;20394;-72
2022/03/11 07:10:51;;;;;;;13.48;6.38;;;;;;;4.91;34.79;102230.53;5067498;28;20048;-73
2022/03/11 07:13:17;;;;;;;11.80;5.72;;;;;;;4.48;35.21;102234.19;5067153;28;20044;-73
2022/03/11 07:15:45;;;;;;;11.02;5.15;;;;;;;4.43;35.30;102222.97;5067684;28;20060;-73
2022/03/11 07:18:12;;;;;;;15.18;6.47;;;;;;;3.90;36.70;102220.44;5051433;28;20052;-73
2022/03/11 07:20:38;;;;;;;13.75;6.18;;;;;;;3.91;35.66;102220.47;5061657;28;20048;-73
2022/03/11 07:23:05;;;;;;;21.15;6.93;;;;;;;4.14;36.05;102233.38;5057938;28;20045;-72
2022/03/11 07:25:32;;;;;;;17.45;5.40;;;;;;;4.71;34.46;102226.31;5045602;28;20398;-72
2022/03/11 07:27:58;;;;;;;17.80;7.47;;;;;;;4.90;35.17;102234.03;5052549;28;20054;-72
2022/03/11 07:30:24;;;;;;;12.75;6.38;;;;;;;4.48;35.21;102233.31;5055300;28;20473;-72
2022/03/11 07:32:53;;;;;;;13.88;6.65;;;;;;;4.30;35.76;102231.63;5062974;28;20059;-72
2022/03/11 07:35:20;;;;;;;13.73;6.10;;;;;;;5.07;33.54;102231.31;5060037;28;20050;-72
2022/03/11 07:37:46;;;;;;;10.75;5.63;;;;;;;5.25;33.77;102227.75;5067626;28;20048;-72
2022/03/11 07:40:13;;;;;;;17.30;6.85;;;;;;;5.92;32.52;102229.88;5054943;28;20056;-72
2022/03/11 07:42:42;;;;;;;16.02;7.05;;;;;;;5.50;32.62;102231.06;5067498;28;20254;-72
2022/03/11 07:45:11;;;;;;;12.00;5.78;;;;;;;4.85;33.76;102238.38;5049870;28;20703;-72
2022/03/11 07:47:37;;;;;;;21.77;7.60;;;;;;;5.50;33.45;102244.09;5060529;28;20040;-72
2022/03/11 07:50:06;;;;;;;12.75;6.80;;;;;;;6.67;31.28;102244.75;5049842;28;20649;-72
2022/03/11 07:52:33;;;;;;;18.08;7.57;;;;;;;6.32;31.55;102239.91;5047729;28;20048;-72
2022/03/11 07:54:59;;;;;;;15.55;6.43;;;;;;;6.57;31.75;102242.25;5047160;28;20051;-73
2022/03/11 07:57:25;;;;;;;13.75;6.35;;;;;;;6.57;31.15;102240.53;5036307;28;20049;-72
2022/03/11 07:59:52;;;;;;;13.73;7.20;;;;;;;7.16;30.94;102231.94;5034453;28;20077;-70
2022/03/11 08:02:18;;;;;;;13.43;7.35;;;;;;;7.75;30.43;102238.00;5035235;28;20069;-69
2022/03/11 08:04:44;;;;;;;12.00;6.22;;;;;;;7.44;29.46;102223.69;5060835;28;20082;-69
2022/03/11 08:07:12;;;;;;;20.02;6.53;;;;;;;7.75;28.94;102222.34;5067388;28;20078;-70
2022/03/11 08:09:39;;;;;;;16.38;6.47;;;;;;;8.20;28.50;102229.38;5067119;28;20508;-71
2022/03/11 08:12:06;;;;;;;15.50;6.88;;;;;;;6.83;29.84;102225.44;5069708;28;20083;-71
2022/03/11 08:14:33;;;;;;;14.85;6.97;;;;;;;7.25;29.30;102217.88;5042119;28;20517;-70
2022/03/11 08:16:59;;;;;;;12.48;6.43;;;;;;;6.95;29.66;102228.78;5068525;28;20048;-70
2022/03/11 08:19:26;;;;;;;16.02;6.28;;;;;;;7.05;29.07;102219.94;5069979;28;20463;-70
2022/03/11 08:21:53;;;;;;;14.82;6.93;;;;;;;6.50;31.45;102233.66;5071341;28;20057;-71
2022/03/11 08:24:21;;;;;;;10.02;5.35;;;;;;;6.20;29.09;102232.25;5072124;28;20044;-70
2022/03/11 08:26:48;;;;;;;10.43;5.28;;;;;;;6.10;29.58;102227.97;5071003;28;20047;-70
2022/03/11 08:29:15;;;;;;;14.48;6.72;;;;;;;5.99;29.38;102222.00;5070427;28;20032;-71
2022/03/11 08:31:41;;;;;;;13.02;6.60;;;;;;;6.87;29.22;102225.41;5054575;28;20048;-70
2022/03/11 08:34:08;;;;;;;7.75;4.30;;;;;;;6.96;28.50;102215.69;5065793;28;20051;-70
2022/03/11 08:36:34;;;;;;;9.65;4.63;;;;;;;7.34;27.72;102212.56;5065176;28;20690;-71
2022/03/11 08:39:01;;;;;;;17.02;6.57;;;;;;;7.10;28.56;102221.56;5070638;28;20053;-70
2022/03/11 08:41:30;;;;;;;12.80;6.32;;;;;;;7.61;27.83;102227.78;5068309;28;20454;-70
2022/03/11 08:43:56;;;;;;;23.88;7.20;;;;;;;7.11;27.97;102227.66;5045818;28;20051;-70
2022/03/11 08:46:23;;;;;;;13.23;7.15;;;;;;;7.77;27.61;102218.81;5065680;28;20740;-70
2022/03/11 08:48:49;;;;;;;16.95;7.32;;;;;;;7.40;28.37;102222.88;5053689;28;20048;-70
2022/03/11 08:51:15;;;;;;;11.35;5.97;;;;;;;6.96;27.80;102235.69;5056888;28;20037;-70
2022/03/11 08:53:42;;;;;;;16.80;6.65;;;;;;;6.99;29.84;102222.59;5067460;28;20048;-70
2022/03/11 08:56:08;;;;;;;14.65;6.25;;;;;;;8.00;27.95;102231.47;5071616;28;20040;-70
2022/03/11 08:58:37;;;;;;;12.35;6.70;;;;;;;7.12;28.55;102226.78;5071027;28;20051;-70
2022/03/11 09:01:03;;;;;;;13.15;6.00;;;;;;;6.70;27.38;102231.66;5069710;28;20044;-70
2022/03/11 09:03:30;;;;;;;16.45;6.78;;;;;;;7.07;28.47;102223.38;5059029;28;20087;-70
2022/03/11 09:05:58;;;;;;;11.77;6.22;;;;;;;7.40;27.64;102206.38;5064105;28;20064;-70
2022/03/11 09:08:24;;;;;;;13.02;6.55;;;;;;;7.09;28.06;102225.09;5070907;28;20039;-70
2022/03/11 09:10:51;;;;;;;13.23;5.75;;;;;;;7.30;27.76;102234.34;5070065;28;20102;-70
2022/03/11 09:13:17;;;;;;;10.60;6.20;;;;;;;7.10;28.03;102236.38;5070764;28;20045;-70
2022/03/11 09:15:45;;;;;;;14.90;6.03;;;;;;;7.43;26.95;102225.44;5044891;28;20413;-70
2022/03/11 09:18:12;;;;;;;10.43;5.75;;;;;;;6.65;28.37;102216.97;5060137;28;20089;-69
2022/03/11 09:20:39;;;;;;;16.67;6.78;;;;;;;6.66;28.07;102214.34;5069530;28;20401;-69
2022/03/11 09:23:06;;;;;;;9.43;5.43;;;;;;;7.78;27.73;102204.88;5051186;28;20044;-69
2022/03/11 09:25:32;;;;;;;8.82;5.22;;;;;;;8.18;27.10;102206.78;5070639;28;20051;-69
2022/03/11 09:27:59;;;;;;;11.63;5.82;;;;;;;8.43;26.21;102202.84;5070947;28;20101;-69
2022/03/11 09:30:25;;;;;;;17.13;6.55;;;;;;;7.92;27.70;102194.19;5069771;28;20048;-70
2022/03/11 09:32:53;;;;;;;8.68;4.97;;;;;;;8.24;26.94;102183.16;5071090;28;20102;-69
2022/03/11 09:35:19;;;;;;;11.27;6.07;;;;;;;7.78;27.93;102204.88;5070907;28;20131;-69
2022/03/11 09:37:46;;;;;;;11.35;5.38;;;;;;;7.90;26.92;102187.28;5069545;28;20102;-69
2022/03/11 09:40:14;;;;;;;15.10;6.60;;;;;;;7.88;27.68;102184.69;5053551;28;20051;-69
2022/03/11 09:42:41;;;;;;;12.27;6.07;;;;;;;7.81;27.69;102181.31;5058055;28;20049;-69
2022/03/11 09:45:08;;;;;;;10.63;5.82;;;;;;;8.31;27.18;102190.84;5057248;28;20052;-69
2022/03/11 09:47:35;;;;;;;9.55;5.90;;;;;;;7.62;28.37;102184.25;5072702;28;20048;-69
2022/03/11 09:50:03;;;;;;;12.45;4.95;;;;;;;7.69;26.88;102199.78;5058532;28;20049;-69
2022/03/11 09:52:32;;;;;;;12.68;5.22;;;;;;;7.91;28.41;102165.50;5065236;28;20110;-69
2022/03/11 09:54:59;;;;;;;14.32;5.88;;;;;;;9.05;27.14;102164.91;5060244;28;20071;-69
2022/03/11 09:57:27;;;;;;;15.20;5.85;;;;;;;8.93;26.18;102169.56;5053688;28;20049;-70
2022/03/11 09:59:54;;;;;;;9.82;5.47;;;;;;;9.41;25.94;102172.78;5037622;28;20128;-70
2022/03/11 10:02:20;;;;;;;12.38;6.05;;;;;;;9.56;26.80;102175.91;5060956;28;20097;-70
2022/03/11 10:04:48;;;;;;;9.85;4.65;;;;;;;9.91;25.44;102166.25;5065263;28;20103;-70
2022/03/11 10:07:24;;;;;;;12.80;5.57;;;;;;;9.79;24.90;102176.16;5047575;28;20485;-71
2022/03/11 10:09:50;;;;;;;13.00;5.55;;;;;;;9.90;25.31;102182.91;5066121;28;20040;-71
2022/03/11 10:12:21;;;;;;;16.13;6.07;;;;;;;9.31;26.25;102174.78;5066869;28;20041;-71
2022/03/11 10:14:55;;;;;;;12.10;5.78;;;;;;;8.16;26.08;102177.22;5055343;28;20507;-70
2022/03/11 10:17:23;;;;;;;12.40;6.28;;;;;;;8.21;27.98;102184.06;5068643;28;20129;-71
2022/03/11 10:19:55;;;;;;;9.80;4.53;;;;;;;8.72;26.20;102181.34;5048289;28;20041;-70
2022/03/11 10:22:25;;;;;;;9.93;4.83;;;;;;;8.68;25.55;102174.47;5060007;28;20055;-70
2022/03/11 10:24:52;;;;;;;14.13;6.10;;;;;;;9.03;27.39;102169.31;5062067;28;20044;-70
2022/03/11 10:27:18;;;;;;;9.95;5.32;;;;;;;8.65;25.84;102174.50;5058718;28;20056;-69
2022/03/11 10:29:45;;;;;;;9.68;4.38;;;;;;;8.54;25.95;102161.66;5064626;28;20048;-69
2022/03/11 10:32:13;;;;;;;10.48;5.05;;;;;;;8.16;26.96;102166.75;5077691;28;20098;-70
2022/03/11 10:34:39;;;;;;;7.70;4.38;;;;;;;8.81;25.91;102170.69;5062695;28;20048;-70
2022/03/11 10:37:08;;;;;;;13.48;5.40;;;;;;;9.51;26.19;102159.44;5048798;28;20128;-70
2022/03/11 10:39:38;;;;;;;10.25;5.35;;;;;;;9.22;26.00;102141.81;5047817;28;20033;-69
2022/03/11 10:42:19;;;;;;;9.75;4.53;;;;;;;9.41;25.50;102142.25;5057130;28;20493;-70
2022/03/11 10:44:58;;;;;;;10.93;5.72;;;;;;;9.71;25.87;102144.09;5055857;28;20060;-70
2022/03/11 10:47:26;;;;;;;8.55;5.10;;;;;;;9.13;25.10;102147.25;5056480;28;20048;-68
2022/03/11 10:49:55;;;;;;;11.73;5.97;;;;;;;9.81;25.32;102138.59;5055252;28;20041;-68
2022/03/11 10:52:33;;;;;;;8.00;5.13;;;;;;;8.98;24.78;102149.38;5052074;28;20041;-69
2022/03/11 10:55:15;;;;;;;10.13;5.63;;;;;;;8.45;26.62;102140.94;5048547;28;20049;-68
2022/03/11 10:57:42;;;;;;;9.63;4.88;;;;;;;8.82;26.73;102171.53;5055283;28;20117;-68
2022/03/11 11:00:17;;;;;;;12.90;5.80;;;;;;;8.93;27.20;102146.88;5063246;28;20496;-68
2022/03/11 11:02:44;;;;;;;15.38;5.30;;;;;;;9.17;24.28;102142.81;5068094;28;20415;-68
2022/03/11 11:05:13;;;;;;;12.20;5.40;;;;;;;9.70;24.58;102134.50;5064799;28;20520;-68
2022/03/11 11:07:40;;;;;;;9.32;5.00;;;;;;;9.32;24.77;102137.22;5061350;28;20518;-68
2022/03/11 11:10:09;;;;;;;10.93;5.53;;;;;;;9.22;26.01;102135.72;5068527;28;20411;-68
2022/03/11 11:12:36;;;;;;;9.52;4.88;;;;;;;9.23;25.49;102129.59;5059077;28;20106;-68
2022/03/11 11:15:03;;;;;;;11.85;5.07;;;;;;;9.43;23.99;102114.25;5058727;28;20476;-68
2022/03/11 11:17:30;;;;;;;9.90;4.63;;;;;;;9.09;24.99;102114.22;5058871;28;20057;-68
2022/03/11 11:20:00;;;;;;;10.70;5.50;;;;;;;9.13;25.36;102125.47;5057031;28;20133;-68
2022/03/11 11:22:29;;;;;;;7.97;4.75;;;;;;;9.41;26.08;102126.53;5059053;28;20048;-68